sensor_id;sensor_type;location;lat;lon;timestamp;pressure;altitude;pressure_sealevel;temperature;humidity
68199;BME280;55021;51.554;17.044;2023-03-21T00:08:39;100576.03;;;11.15;85.13
68199;BME280;55021;51.554;17.044;2023-03-21T00:23:45;100529.13;;;10.34;87.46
68199;BME280;55021;51.554;17.044;2023-03-21T00:38:47;100584.22;;;10.60;88.12
68199;BME280;55021;51.554;17.044;2023-03-21T00:53:49;100579.25;;;10.65;88.00
68199;BME280;55021;51.554;17.044;2023-03-21T01:08:52;100570.88;;;10.59;88.14
68199;BME280;55021;51.554;17.044;2023-03-21T01:23:55;100555.91;;;10.82;87.22
68199;BME280;55021;51.554;17.044;2023-03-21T01:38:58;100575.28;;;11.22;85.21
68199;BME280;55021;51.554;17.044;2023-03-21T01:54:01;100574.56;;;10.58;87.45
68199;BME280;55021;51.554;17.044;2023-03-21T02:09:08;100560.44;;;10.64;86.80
68199;BME280;55021;51.554;17.044;2023-03-21T02:39:52;100556.47;;;10.31;88.44
68199;BME280;55021;51.554;17.044;2023-03-21T02:54:57;100560.63;;;10.25;88.87
68199;BME280;55021;51.554;17.044;2023-03-21T03:10:13;100564.38;;;10.42;87.57
68199;BME280;55021;51.554;17.044;2023-03-21T03:25:28;100580.75;;;10.50;86.48
68199;BME280;55021;51.554;17.044;2023-03-21T03:40:35;100583.81;;;10.28;87.19
68199;BME280;55021;51.554;17.044;2023-03-21T03:55:41;100601.47;;;9.76;89.33
68199;BME280;55021;51.554;17.044;2023-03-21T04:10:44;100564.78;;;9.73;87.99
68199;BME280;55021;51.554;17.044;2023-03-21T04:25:46;100588.69;;;10.15;86.08
68199;BME280;55021;51.554;17.044;2023-03-21T04:40:48;100605.91;;;10.14;85.65
68199;BME280;55021;51.554;17.044;2023-03-21T04:55:51;100615.09;;;10.30;84.61
68199;BME280;55021;51.554;17.044;2023-03-21T05:10:53;100600.28;;;10.34;83.69
68199;BME280;55021;51.554;17.044;2023-03-21T05:25:56;100581.78;;;10.30;83.29
68199;BME280;55021;51.554;17.044;2023-03-21T05:40:58;100550.94;;;9.30;86.62
68199;BME280;55021;51.554;17.044;2023-03-21T05:56:01;100533.97;;;10.03;83.27
68199;BME280;55021;51.554;17.044;2023-03-21T06:11:16;100649.72;;;10.64;83.46
68199;BME280;55021;51.554;17.044;2023-03-21T06:26:20;100641.81;;;10.80;83.13
68199;BME280;55021;51.554;17.044;2023-03-21T06:41:23;100654.19;;;10.55;84.20
68199;BME280;55021;51.554;17.044;2023-03-21T06:56:25;100665.78;;;11.20;81.81
68199;BME280;55021;51.554;17.044;2023-03-21T07:11:28;100677.66;;;11.54;81.89
68199;BME280;55021;51.554;17.044;2023-03-21T07:26:31;100688.56;;;10.99;83.46
68199;BME280;55021;51.554;17.044;2023-03-21T07:41:33;100701.16;;;10.91;82.49
68199;BME280;55021;51.554;17.044;2023-03-21T07:56:36;100681.28;;;11.63;80.42
68199;BME280;55021;51.554;17.044;2023-03-21T08:11:38;100698.72;;;11.60;79.29
68199;BME280;55021;51.554;17.044;2023-03-21T08:26:41;100698.94;;;11.04;79.08
68199;BME280;55021;51.554;17.044;2023-03-21T08:41:44;100692.69;;;10.76;78.87
68199;BME280;55021;51.554;17.044;2023-03-21T08:56:47;100730.69;;;11.12;78.59
68199;BME280;55021;51.554;17.044;2023-03-21T09:11:49;100741.66;;;10.83;78.65
68199;BME280;55021;51.554;17.044;2023-03-21T09:26:52;100716.44;;;10.46;81.96
68199;BME280;55021;51.554;17.044;2023-03-21T09:42:06;100742.88;;;11.25;78.85
68199;BME280;55021;51.554;17.044;2023-03-21T09:57:17;100737.63;;;12.30;74.39
68199;BME280;55021;51.554;17.044;2023-03-21T10:12:24;100724.72;;;11.88;73.66
68199;BME280;55021;51.554;17.044;2023-03-21T10:27:28;100722.22;;;12.90;70.06
68199;BME280;55021;51.554;17.044;2023-03-21T10:42:31;100724.84;;;13.07;67.13
68199;BME280;55021;51.554;17.044;2023-03-21T10:57:35;100709.13;;;14.01;62.78
68199;BME280;55021;51.554;17.044;2023-03-21T11:12:39;100674.97;;;13.16;64.90
68199;BME280;55021;51.554;17.044;2023-03-21T11:27:49;100712.94;;;12.41;69.47
68199;BME280;55021;51.554;17.044;2023-03-21T11:42:54;100693.44;;;12.71;67.80
68199;BME280;55021;51.554;17.044;2023-03-21T11:58:09;100696.06;;;12.81;66.92
68199;BME280;55021;51.554;17.044;2023-03-21T12:13:33;100690.31;;;12.32;69.92
68199;BME280;55021;51.554;17.044;2023-03-21T12:28:44;100681.25;;;12.75;68.40
68199;BME280;55021;51.554;17.044;2023-03-21T12:44:00;100665.84;;;12.24;69.93
68199;BME280;55021;51.554;17.044;2023-03-21T12:59:14;100651.84;;;12.62;67.84
68199;BME280;55021;51.554;17.044;2023-03-21T13:14:24;100640.53;;;12.41;71.23
68199;BME280;55021;51.554;17.044;2023-03-21T13:29:31;100629.84;;;12.40;71.58
68199;BME280;55021;51.554;17.044;2023-03-21T13:44:40;100615.88;;;13.10;69.20
68199;BME280;55021;51.554;17.044;2023-03-21T13:59:44;100611.25;;;12.53;72.45
68199;BME280;55021;51.554;17.044;2023-03-21T14:14:50;100599.53;;;12.94;70.96
68199;BME280;55021;51.554;17.044;2023-03-21T14:29:54;100523.84;;;13.31;66.23
68199;BME280;55021;51.554;17.044;2023-03-21T14:44:57;100565.81;;;13.61;66.00
68199;BME280;55021;51.554;17.044;2023-03-21T15:00:02;100558.53;;;13.38;66.61
68199;BME280;55021;51.554;17.044;2023-03-21T15:15:12;100558.81;;;13.91;63.21
68199;BME280;55021;51.554;17.044;2023-03-21T15:30:20;100548.00;;;13.43;65.53
68199;BME280;55021;51.554;17.044;2023-03-21T15:45:25;100542.50;;;13.91;62.30
68199;BME280;55021;51.554;17.044;2023-03-21T16:00:34;100545.09;;;13.84;66.27
68199;BME280;55021;51.554;17.044;2023-03-21T16:15:37;100539.47;;;13.78;65.33
68199;BME280;55021;51.554;17.044;2023-03-21T16:30:39;100512.53;;;13.44;66.08
68199;BME280;55021;51.554;17.044;2023-03-21T16:45:41;100543.75;;;13.40;68.96
68199;BME280;55021;51.554;17.044;2023-03-21T17:00:44;100540.97;;;12.92;71.57
68199;BME280;55021;51.554;17.044;2023-03-21T17:15:46;100532.69;;;12.43;72.49
68199;BME280;55021;51.554;17.044;2023-03-21T17:30:48;100537.97;;;12.45;73.61
68199;BME280;55021;51.554;17.044;2023-03-21T17:45:51;100553.09;;;12.22;75.04
68199;BME280;55021;51.554;17.044;2023-03-21T18:00:53;100514.63;;;12.18;74.67
68199;BME280;55021;51.554;17.044;2023-03-21T18:15:56;100553.97;;;12.22;74.40
68199;BME280;55021;51.554;17.044;2023-03-21T18:30:58;100550.41;;;12.22;74.40
68199;BME280;55021;51.554;17.044;2023-03-21T18:46:01;100461.66;;;11.21;75.74
68199;BME280;55021;51.554;17.044;2023-03-21T19:01:04;100471.66;;;11.46;73.85
68199;BME280;55021;51.554;17.044;2023-03-21T19:16:06;100549.09;;;11.74;74.95
68199;BME280;55021;51.554;17.044;2023-03-21T19:31:09;100548.66;;;11.61;75.77
68199;BME280;55021;51.554;17.044;2023-03-21T19:46:12;100522.31;;;11.71;75.44
68199;BME280;55021;51.554;17.044;2023-03-21T20:01:14;100508.91;;;11.44;76.31
68199;BME280;55021;51.554;17.044;2023-03-21T20:16:17;100466.16;;;11.30;75.30
68199;BME280;55021;51.554;17.044;2023-03-21T20:31:19;100495.75;;;11.31;75.24
68199;BME280;55021;51.554;17.044;2023-03-21T20:46:22;100519.22;;;11.66;74.58
68199;BME280;55021;51.554;17.044;2023-03-21T21:01:24;100508.34;;;11.92;74.24
68199;BME280;55021;51.554;17.044;2023-03-21T21:16:27;100485.59;;;11.77;74.95
68199;BME280;55021;51.554;17.044;2023-03-21T21:31:29;100464.56;;;11.79;74.71
68199;BME280;55021;51.554;17.044;2023-03-21T21:46:32;100426.78;;;11.69;74.42
68199;BME280;55021;51.554;17.044;2023-03-21T22:01:35;100459.19;;;11.87;75.01
68199;BME280;55021;51.554;17.044;2023-03-21T22:16:37;100451.91;;;11.87;75.31
68199;BME280;55021;51.554;17.044;2023-03-21T22:31:40;100428.38;;;11.88;74.75
68199;BME280;55021;51.554;17.044;2023-03-21T22:46:42;100424.59;;;11.81;75.04
68199;BME280;55021;51.554;17.044;2023-03-21T23:01:44;100445.75;;;11.69;76.20
68199;BME280;55021;51.554;17.044;2023-03-21T23:16:48;100422.19;;;11.70;76.00
68199;BME280;55021;51.554;17.044;2023-03-21T23:31:50;100397.03;;;11.85;75.11
68199;BME280;55021;51.554;17.044;2023-03-21T23:46:53;100390.56;;;11.86;76.03
